createdAt,value
2018-08-03T00:00:03.129Z,12.10
2018-08-03T00:02:31.736Z,11.50
2018-08-03T00:05:00.296Z,11.70
2018-08-03T00:07:29.226Z,11.27
2018-08-03T00:09:57.772Z,11.67
2018-08-03T00:12:26.320Z,11.37
2018-08-03T00:14:54.923Z,11.70
2018-08-03T00:17:23.487Z,11.07
2018-08-03T00:19:52.129Z,11.60
2018-08-03T00:22:20.728Z,11.57
2018-08-03T00:24:49.309Z,11.50
2018-08-03T00:27:17.940Z,11.57
2018-08-03T00:29:46.460Z,11.67
2018-08-03T00:32:15.158Z,11.23
2018-08-03T00:34:43.697Z,12.00
2018-08-03T00:37:12.353Z,12.27
2018-08-03T00:39:40.881Z,11.83
2018-08-03T00:42:09.432Z,12.07
2018-08-03T00:44:37.696Z,11.97
2018-08-03T00:47:06.536Z,12.13
2018-08-03T00:49:35.105Z,11.83
2018-08-03T00:52:03.784Z,12.37
2018-08-03T00:54:32.360Z,12.40
2018-08-03T00:57:00.901Z,13.30
2018-08-03T00:59:29.470Z,13.63
2018-08-03T01:01:58.000Z,13.40
2018-08-03T01:04:26.547Z,13.20
2018-08-03T01:06:55.079Z,14.67
2018-08-03T01:09:23.275Z,13.73
2018-08-03T01:11:51.852Z,14.23
2018-08-03T01:14:20.432Z,14.10
2018-08-03T01:16:48.996Z,13.37
2018-08-03T01:19:17.596Z,13.93
2018-08-03T01:21:46.201Z,14.40
2018-08-03T01:24:14.812Z,14.50
2018-08-03T01:26:44.204Z,14.30
2018-08-03T01:29:12.904Z,15.37
2018-08-03T01:31:41.419Z,14.73
2018-08-03T01:34:10.008Z,15.80
2018-08-03T01:36:38.286Z,15.17
2018-08-03T01:39:08.180Z,15.23
2018-08-03T01:41:36.704Z,14.67
2018-08-03T01:44:05.255Z,14.47
2018-08-03T01:46:33.782Z,15.67
2018-08-03T01:49:02.504Z,16.03
2018-08-03T01:51:31.023Z,15.87
2018-08-03T01:53:59.634Z,16.03
2018-08-03T01:56:28.366Z,16.47
2018-08-03T01:58:57.167Z,16.27
2018-08-03T02:01:25.359Z,16.60
2018-08-03T02:03:54.060Z,16.63
2018-08-03T02:06:22.787Z,16.77
2018-08-03T02:08:51.659Z,17.23
2018-08-03T02:11:20.211Z,17.00
2018-08-03T02:13:48.746Z,17.10
2018-08-03T02:16:17.301Z,17.57
2018-08-03T02:18:45.843Z,17.90
2018-08-03T02:21:14.406Z,17.87
2018-08-03T02:23:42.959Z,17.77
2018-08-03T02:26:11.549Z,17.50
2018-08-03T02:28:40.116Z,18.37
2018-08-03T02:31:08.645Z,18.77
2018-08-03T02:33:37.245Z,18.33
2018-08-03T02:36:05.477Z,18.23
2018-08-03T02:38:33.997Z,18.87
2018-08-03T02:41:02.505Z,19.37
2018-08-03T02:43:31.083Z,19.23
2018-08-03T02:45:59.629Z,19.23
2018-08-03T02:48:28.163Z,19.23
2018-08-03T02:50:56.378Z,19.17
2018-08-03T02:53:24.975Z,19.80
2018-08-03T02:55:53.537Z,19.87
2018-08-03T02:58:22.055Z,20.00
2018-08-03T03:00:50.610Z,19.00
2018-08-03T03:03:19.157Z,20.30
2018-08-03T03:05:47.691Z,19.50
2018-08-03T03:08:16.237Z,19.27
2018-08-03T03:10:44.794Z,20.27
2018-08-03T03:13:13.363Z,20.13
2018-08-03T03:15:41.919Z,20.87
2018-08-03T03:18:10.470Z,20.83
2018-08-03T03:20:39.092Z,21.43
2018-08-03T03:23:07.636Z,20.63
2018-08-03T03:25:36.550Z,22.17
2018-08-03T03:28:05.129Z,19.93
2018-08-03T03:30:33.839Z,20.70
2018-08-03T03:33:02.398Z,20.87
2018-08-03T03:35:31.046Z,21.03
2018-08-03T03:37:59.582Z,20.47
2018-08-03T03:40:28.158Z,20.47
2018-08-03T03:42:56.733Z,20.67
2018-08-03T03:45:25.391Z,20.43
2018-08-03T03:47:53.918Z,20.13
2018-08-03T03:50:22.486Z,21.23
2018-08-03T03:52:51.036Z,20.40
2018-08-03T03:55:19.580Z,20.63
2018-08-03T03:57:48.250Z,19.70
2018-08-03T04:00:16.928Z,21.20
2018-08-03T04:02:45.588Z,20.23
2018-08-03T04:05:14.153Z,20.53
2018-08-03T04:07:43.090Z,20.70
2018-08-03T04:10:11.707Z,20.80
2018-08-03T04:12:40.395Z,20.93
2018-08-03T04:15:09.055Z,19.60
2018-08-03T04:17:37.577Z,19.77
2018-08-03T04:20:06.245Z,20.70
2018-08-03T04:22:34.835Z,20.07
2018-08-03T04:25:03.469Z,19.53
2018-08-03T04:27:32.173Z,20.70
2018-08-03T04:30:00.733Z,20.07
2018-08-03T04:32:29.402Z,20.33
2018-08-03T04:34:57.951Z,21.30
2018-08-03T04:37:26.475Z,20.60
2018-08-03T04:39:55.619Z,20.60
2018-08-03T04:42:24.556Z,21.13
2018-08-03T04:44:53.275Z,20.37
2018-08-03T04:47:21.857Z,20.50
2018-08-03T04:49:50.378Z,19.93
2018-08-03T04:52:18.969Z,20.30
2018-08-03T04:54:47.534Z,21.03
2018-08-03T04:57:16.067Z,20.13
2018-08-03T04:59:44.676Z,20.10
2018-08-03T05:02:13.292Z,20.23
2018-08-03T05:04:41.984Z,21.40
2018-08-03T05:07:10.693Z,20.87
2018-08-03T05:09:39.613Z,21.57
2018-08-03T05:12:08.914Z,20.13
2018-08-03T05:14:37.581Z,19.70
2018-08-03T05:17:06.257Z,21.60
2018-08-03T05:19:34.933Z,19.40
2018-08-03T05:22:03.628Z,18.80
2018-08-03T05:24:32.352Z,18.67
2018-08-03T05:27:00.924Z,18.10
2018-08-03T05:29:31.568Z,17.27
2018-08-03T05:32:00.122Z,17.20
2018-08-03T05:34:28.684Z,17.70
2018-08-03T05:36:57.288Z,17.10
2018-08-03T05:39:25.908Z,16.63
2018-08-03T05:41:54.455Z,15.37
2018-08-03T05:44:22.999Z,14.63
2018-08-03T05:46:51.737Z,14.70
2018-08-03T05:49:20.309Z,13.30
2018-08-03T05:51:48.897Z,13.70
2018-08-03T05:54:17.581Z,11.63
2018-08-03T05:56:46.534Z,12.40
2018-08-03T05:59:15.140Z,11.70
2018-08-03T06:01:43.686Z,11.63
2018-08-03T06:04:12.384Z,10.73
2018-08-03T06:06:41.039Z,11.70
2018-08-03T06:09:11.146Z,10.90
2018-08-03T06:11:39.790Z,11.10
2018-08-03T06:14:08.834Z,12.03
2018-08-03T06:16:37.874Z,11.43
2018-08-03T06:19:07.431Z,10.03
2018-08-03T06:21:36.074Z,10.43
2018-08-03T06:24:04.772Z,10.37
2018-08-03T06:26:33.661Z,10.43
2018-08-03T06:29:02.349Z,10.27
2018-08-03T06:31:31.102Z,10.37
2018-08-03T06:33:59.826Z,10.33
2018-08-03T06:36:28.426Z,10.73
2018-08-03T06:38:57.410Z,11.67
2018-08-03T06:41:26.068Z,11.33
2018-08-03T06:43:56.540Z,11.03
2018-08-03T06:46:25.224Z,10.43
2018-08-03T06:48:53.975Z,10.77
2018-08-03T06:51:23.427Z,10.73
2018-08-03T06:53:51.870Z,10.80
2018-08-03T06:56:22.457Z,10.30
2018-08-03T06:58:51.375Z,10.67
2018-08-03T07:01:20.094Z,9.97
2018-08-03T07:03:48.858Z,10.80
2018-08-03T07:06:17.570Z,9.90
2018-08-03T07:08:46.309Z,10.43
2018-08-03T07:11:15.002Z,9.57
2018-08-03T07:13:43.635Z,10.77
2018-08-03T07:16:12.424Z,10.13
2018-08-03T07:18:41.369Z,9.50
2018-08-03T07:21:10.716Z,10.33
2018-08-03T07:23:39.452Z,9.03
2018-08-03T07:26:08.067Z,8.60
2018-08-03T07:28:36.816Z,9.13
2018-08-03T07:31:05.108Z,7.80
2018-08-03T07:33:34.345Z,8.50
2018-08-03T07:36:02.942Z,8.33
2018-08-03T07:38:31.627Z,8.27
2018-08-03T07:41:00.202Z,8.27
2018-08-03T07:43:28.975Z,8.40
2018-08-03T07:45:58.561Z,8.73
2018-08-03T07:48:27.181Z,8.20
2018-08-03T07:50:56.698Z,7.97
2018-08-03T07:53:25.920Z,8.30
2018-08-03T07:55:54.632Z,7.67
2018-08-03T07:58:23.345Z,8.43
2018-08-03T08:00:52.006Z,7.80
2018-08-03T08:03:20.709Z,7.13
2018-08-03T08:05:49.320Z,7.33
2018-08-03T08:08:17.973Z,7.30
2018-08-03T08:10:46.676Z,6.97
2018-08-03T08:13:16.162Z,7.00
2018-08-03T08:15:44.859Z,8.17
2018-08-03T08:18:13.497Z,6.90
2018-08-03T08:20:42.136Z,6.83
2018-08-03T08:23:10.759Z,6.30
2018-08-03T08:25:39.469Z,5.87
2018-08-03T08:28:08.195Z,6.10
2018-08-03T08:30:36.814Z,6.30
2018-08-03T08:33:05.467Z,6.53
2018-08-03T08:35:34.406Z,6.83
2018-08-03T08:38:03.146Z,5.80
2018-08-03T08:40:31.802Z,5.90
2018-08-03T08:43:00.985Z,6.13
2018-08-03T08:45:29.617Z,5.60
2018-08-03T08:47:58.585Z,6.00
2018-08-03T08:50:27.751Z,6.10
2018-08-03T08:52:56.601Z,5.70
2018-08-03T08:55:25.445Z,5.00
2018-08-03T08:57:54.208Z,4.90
2018-08-03T09:00:22.790Z,4.57
2018-08-03T09:02:51.714Z,5.30
2018-08-03T09:05:20.525Z,5.20
2018-08-03T09:07:49.183Z,4.97
2018-08-03T09:10:18.006Z,4.30
2018-08-03T09:12:47.996Z,4.60
2018-08-03T09:15:16.570Z,4.80
2018-08-03T09:17:45.509Z,4.50
2018-08-03T09:20:14.105Z,4.87
2018-08-03T09:22:42.711Z,4.90
2018-08-03T09:25:11.701Z,4.50
2018-08-03T09:27:40.311Z,4.93
2018-08-03T09:30:10.095Z,5.70
2018-08-03T09:32:38.888Z,4.90
2018-08-03T09:35:07.651Z,4.53
2018-08-03T09:37:37.004Z,4.97
2018-08-03T09:40:05.963Z,5.03
2018-08-03T09:42:34.604Z,4.37
2018-08-03T09:45:03.938Z,4.13
2018-08-03T09:47:32.525Z,4.23
2018-08-03T09:50:01.294Z,4.57
2018-08-03T09:52:30.083Z,4.73
2018-08-03T09:54:59.292Z,4.70
2018-08-03T09:57:28.132Z,4.77
2018-08-03T09:59:56.946Z,4.80
2018-08-03T10:02:25.618Z,5.33
2018-08-03T10:04:54.403Z,4.87
2018-08-03T10:07:23.120Z,4.77
2018-08-03T10:09:51.559Z,4.17
2018-08-03T10:12:21.334Z,4.43
2018-08-03T10:14:51.043Z,4.70
2018-08-03T10:17:20.021Z,4.97
2018-08-03T10:19:48.632Z,4.80
2018-08-03T10:22:17.664Z,4.57
2018-08-03T10:24:46.207Z,4.90
2018-08-03T10:27:14.927Z,4.50
2018-08-03T10:29:44.001Z,4.70
2018-08-03T10:32:12.605Z,4.80
2018-08-03T10:34:41.457Z,4.60
2018-08-03T10:37:10.513Z,4.60
2018-08-03T10:39:39.105Z,4.60
2018-08-03T10:42:08.170Z,4.90
2018-08-03T10:44:44.569Z,4.90
2018-08-03T10:47:13.333Z,4.60
2018-08-03T10:49:42.124Z,4.60
2018-08-03T10:52:10.731Z,5.00
2018-08-03T10:54:40.688Z,5.07
2018-08-03T10:57:09.431Z,5.10
2018-08-03T10:59:39.504Z,4.60
2018-08-03T11:02:08.161Z,5.33
2018-08-03T11:04:37.437Z,5.07
2018-08-03T11:07:05.807Z,4.70
2018-08-03T11:09:34.557Z,4.93
2018-08-03T11:12:03.468Z,5.00
2018-08-03T11:14:32.438Z,4.90
2018-08-03T11:17:01.653Z,4.70
2018-08-03T11:19:30.968Z,4.90
2018-08-03T11:21:59.607Z,4.37
2018-08-03T11:24:28.434Z,4.50
2018-08-03T11:26:57.045Z,4.90
2018-08-03T11:29:26.455Z,4.90
2018-08-03T11:31:55.803Z,4.53
2018-08-03T11:34:24.685Z,4.60
2018-08-03T11:36:54.133Z,4.80
2018-08-03T11:39:22.903Z,4.30
2018-08-03T11:41:51.860Z,4.40
2018-08-03T11:44:21.501Z,4.90
2018-08-03T11:46:51.968Z,4.50
2018-08-03T11:49:20.762Z,4.50
2018-08-03T11:51:49.715Z,4.50
2018-08-03T11:54:18.394Z,4.37
2018-08-03T11:56:48.219Z,4.63
2018-08-03T11:59:16.883Z,4.70
2018-08-03T12:01:46.165Z,4.43
2018-08-03T12:04:14.807Z,4.50
2018-08-03T12:06:43.669Z,4.97
2018-08-03T12:09:12.533Z,4.50
2018-08-03T12:11:41.462Z,4.50
2018-08-03T12:14:10.224Z,4.37
2018-08-03T12:16:39.191Z,4.60
2018-08-03T12:19:07.921Z,4.23
2018-08-03T12:21:36.549Z,4.40
2018-08-03T12:24:05.262Z,4.33
2018-08-03T12:26:34.174Z,4.60
2018-08-03T12:29:02.811Z,4.40
2018-08-03T12:31:31.544Z,4.00
2018-08-03T12:34:00.289Z,4.90
2018-08-03T12:36:29.800Z,4.40
2018-08-03T12:38:58.599Z,4.20
2018-08-03T12:41:26.888Z,4.23
2018-08-03T12:43:55.781Z,4.27
2018-08-03T12:46:24.718Z,4.37
2018-08-03T12:48:53.694Z,3.87
2018-08-03T12:51:22.580Z,4.50
2018-08-03T12:53:51.326Z,4.30
2018-08-03T12:56:20.352Z,4.50
2018-08-03T12:58:48.990Z,3.87
2018-08-03T13:01:18.131Z,4.20
2018-08-03T13:03:46.691Z,4.20
2018-08-03T13:06:15.279Z,3.90
2018-08-03T13:08:44.264Z,3.73
2018-08-03T13:11:14.016Z,4.03
2018-08-03T13:13:43.229Z,3.63
2018-08-03T13:16:12.044Z,4.27
2018-08-03T13:18:40.664Z,3.70
2018-08-03T13:21:20.460Z,4.37
2018-08-03T13:23:57.830Z,4.03
2018-08-03T13:26:26.859Z,3.97
2018-08-03T13:28:56.037Z,3.87
2018-08-03T13:31:25.718Z,4.10
2018-08-03T13:33:55.301Z,3.57
2018-08-03T13:36:25.423Z,3.80
2018-08-03T13:38:54.357Z,3.80
2018-08-03T13:41:23.144Z,4.00
2018-08-03T13:43:51.861Z,3.47
2018-08-03T13:46:20.599Z,3.50
2018-08-03T13:48:50.264Z,3.77
2018-08-03T13:51:19.960Z,3.93
2018-08-03T13:53:49.367Z,3.77
2018-08-03T13:56:18.511Z,3.63
2018-08-03T13:58:47.615Z,3.43
2018-08-03T14:01:27.251Z,3.23
2018-08-03T14:03:55.902Z,3.20
2018-08-03T14:06:24.667Z,3.63
2018-08-03T14:08:53.656Z,3.37
2018-08-03T14:11:22.437Z,3.20
2018-08-03T14:13:51.197Z,3.17
2018-08-03T14:16:20.031Z,3.50
2018-08-03T14:18:48.869Z,3.17
2018-08-03T14:21:17.564Z,3.33
2018-08-03T14:23:46.129Z,3.40
2018-08-03T14:26:14.928Z,3.23
2018-08-03T14:28:44.067Z,2.90
2018-08-03T14:31:12.704Z,3.47
2018-08-03T14:33:41.351Z,3.27
2018-08-03T14:36:09.922Z,3.37
2018-08-03T14:38:38.557Z,3.07
2018-08-03T14:41:07.456Z,3.10
2018-08-03T14:43:36.096Z,3.70
2018-08-03T14:46:04.769Z,3.67
2018-08-03T14:48:33.607Z,3.33
2018-08-03T14:51:02.226Z,3.60
2018-08-03T14:53:30.924Z,3.30
2018-08-03T14:56:00.296Z,3.40
2018-08-03T14:58:28.643Z,2.90
2018-08-03T15:00:57.261Z,3.10
2018-08-03T15:03:26.135Z,3.20
2018-08-03T15:05:55.044Z,3.10
2018-08-03T15:08:23.747Z,3.00
2018-08-03T15:10:52.450Z,3.03
2018-08-03T15:13:21.340Z,3.20
2018-08-03T15:15:50.013Z,3.50
2018-08-03T15:18:18.917Z,3.50
2018-08-03T15:20:47.612Z,3.03
2018-08-03T15:23:17.112Z,3.13
2018-08-03T15:25:45.906Z,2.97
2018-08-03T15:28:14.591Z,3.30
2018-08-03T15:30:43.277Z,2.90
2018-08-03T15:33:12.236Z,3.37
2018-08-03T15:35:40.864Z,3.20
2018-08-03T15:38:09.493Z,3.20
2018-08-03T15:40:37.928Z,3.10
2018-08-03T15:43:06.756Z,3.13
2018-08-03T15:45:35.496Z,3.23
2018-08-03T15:48:04.495Z,3.40
2018-08-03T15:50:33.381Z,2.97
2018-08-03T15:55:44.211Z,2.87
2018-08-03T15:58:12.784Z,3.10
2018-08-03T16:00:41.373Z,3.00
2018-08-03T16:03:10.142Z,2.90
2018-08-03T16:05:38.787Z,2.63
2018-08-03T16:08:07.361Z,2.77
2018-08-03T16:10:35.915Z,2.97
2018-08-03T16:13:04.555Z,2.90
2018-08-03T16:15:33.232Z,2.70
2018-08-03T16:18:01.893Z,3.30
2018-08-03T16:20:30.608Z,3.10
2018-08-03T16:22:59.139Z,3.40
2018-08-03T16:25:29.553Z,3.30
2018-08-03T16:27:58.779Z,3.40
2018-08-03T16:30:27.470Z,3.30
2018-08-03T16:32:56.013Z,3.47
2018-08-03T16:35:24.692Z,2.80
2018-08-03T16:37:53.308Z,3.10
2018-08-03T16:40:21.935Z,3.37
2018-08-03T16:42:50.555Z,3.40
2018-08-03T16:45:19.308Z,3.40
2018-08-03T16:47:47.927Z,3.00
2018-08-03T16:50:16.934Z,3.50
2018-08-03T16:52:46.891Z,3.30
2018-08-03T16:55:15.570Z,3.40
2018-08-03T16:57:44.202Z,3.43
2018-08-03T17:00:12.820Z,3.20
2018-08-03T17:02:41.401Z,3.60
2018-08-03T17:05:10.052Z,3.87
2018-08-03T17:07:38.780Z,3.40
2018-08-03T17:10:07.338Z,4.07
2018-08-03T17:12:35.961Z,3.50
2018-08-03T17:15:04.776Z,3.60
2018-08-03T17:17:33.502Z,4.10
2018-08-03T17:20:02.400Z,3.97
2018-08-03T17:22:31.135Z,4.20
2018-08-03T17:25:00.577Z,3.60
2018-08-03T17:27:29.248Z,3.50
2018-08-03T17:29:58.082Z,3.70
2018-08-03T17:32:26.875Z,3.87
2018-08-03T17:34:55.559Z,3.80
2018-08-03T17:37:24.187Z,3.60
2018-08-03T17:39:52.875Z,4.30
2018-08-03T17:42:21.620Z,4.80
2018-08-03T17:44:50.403Z,5.07
2018-08-03T17:47:18.969Z,4.97
2018-08-03T17:49:47.761Z,4.73
2018-08-03T17:52:16.292Z,5.17
2018-08-03T17:54:44.873Z,5.40
2018-08-03T17:57:13.659Z,5.00
2018-08-03T17:59:42.401Z,4.63
2018-08-03T18:02:11.034Z,4.87
2018-08-03T18:04:39.652Z,5.00
2018-08-03T18:07:08.746Z,4.80
2018-08-03T18:09:37.505Z,4.90
2018-08-03T18:12:06.209Z,4.70
2018-08-03T18:14:35.078Z,4.07
2018-08-03T18:17:04.503Z,4.30
2018-08-03T18:19:33.142Z,4.63
2018-08-03T18:22:01.856Z,5.20
2018-08-03T18:24:30.449Z,5.30
2018-08-03T18:26:59.091Z,5.43
2018-08-03T18:29:27.764Z,5.13
2018-08-03T18:31:56.398Z,5.53
2018-08-03T18:34:25.053Z,5.87
2018-08-03T18:36:54.000Z,5.33
2018-08-03T18:39:22.617Z,6.80
2018-08-03T18:41:51.292Z,8.13
2018-08-03T18:44:19.908Z,9.10
2018-08-03T18:46:48.621Z,8.03
2018-08-03T18:49:17.789Z,8.50
2018-08-03T18:51:46.410Z,7.77
2018-08-03T18:54:15.042Z,5.83
2018-08-03T18:56:43.763Z,6.67
2018-08-03T18:59:12.444Z,7.57
2018-08-03T19:01:41.068Z,7.03
2018-08-03T19:04:10.575Z,6.70
2018-08-03T19:06:39.405Z,6.57
2018-08-03T19:09:08.726Z,7.50
2018-08-03T19:11:37.577Z,7.50
2018-08-03T19:14:06.274Z,7.03
2018-08-03T19:16:34.933Z,6.50
2018-08-03T19:19:03.683Z,5.73
2018-08-03T19:21:32.343Z,6.17
2018-08-03T19:24:01.030Z,5.77
2018-08-03T19:26:29.761Z,6.57
2018-08-03T19:28:58.601Z,6.87
2018-08-03T19:31:27.413Z,6.43
2018-08-03T19:33:56.200Z,6.03
2018-08-03T19:36:25.094Z,6.60
2018-08-03T19:38:53.819Z,7.10
2018-08-03T19:41:23.385Z,6.53
2018-08-03T19:43:52.575Z,6.60
2018-08-03T19:46:21.261Z,7.17
2018-08-03T19:48:50.082Z,6.83
2018-08-03T19:51:19.102Z,6.30
2018-08-03T19:53:47.964Z,6.03
2018-08-03T19:56:17.857Z,6.03
2018-08-03T19:58:46.682Z,6.17
2018-08-03T20:01:16.723Z,6.43
2018-08-03T20:03:51.368Z,7.23
2018-08-03T20:06:24.952Z,6.40
2018-08-03T20:09:01.121Z,7.00
2018-08-03T20:11:34.915Z,7.23
2018-08-03T20:14:22.163Z,6.73
2018-08-03T20:16:59.520Z,6.60
2018-08-03T20:19:34.823Z,6.77
2018-08-03T20:22:09.718Z,6.97
2018-08-03T20:24:43.517Z,7.10
2018-08-03T20:27:23.865Z,7.00
2018-08-03T20:29:59.158Z,6.90
2018-08-03T20:32:30.933Z,7.23
2018-08-03T20:35:12.466Z,6.93
2018-08-03T20:37:49.659Z,7.73
2018-08-03T20:40:23.971Z,7.63
2018-08-03T20:42:57.875Z,8.27
2018-08-03T20:45:28.752Z,7.70
2018-08-03T20:48:02.462Z,8.27
2018-08-03T20:50:33.287Z,8.40
2018-08-03T20:53:11.486Z,10.83
2018-08-03T20:55:48.354Z,11.40
2018-08-03T20:58:23.104Z,11.50
2018-08-03T21:00:57.572Z,12.07
2018-08-03T21:03:30.886Z,11.90
2018-08-03T21:06:07.529Z,10.77
2018-08-03T21:08:41.186Z,10.53
2018-08-03T21:11:17.374Z,9.30
2018-08-03T21:13:51.378Z,10.00
2018-08-03T21:16:28.014Z,10.30
2018-08-03T21:19:02.572Z,9.90
2018-08-03T21:21:34.461Z,10.53
2018-08-03T21:24:10.524Z,9.60
2018-08-03T21:26:41.014Z,9.97
2018-08-03T21:29:23.547Z,10.50
2018-08-03T21:32:06.985Z,12.33
2018-08-03T21:34:45.609Z,12.97
2018-08-03T21:37:24.620Z,11.50
2018-08-03T21:40:02.243Z,11.63
2018-08-03T21:42:34.323Z,12.20
2018-08-03T21:48:09.088Z,11.20
2018-08-03T21:50:47.846Z,11.33
2018-08-03T21:53:22.746Z,11.50
2018-08-03T21:55:57.797Z,10.73
2018-08-03T21:58:32.725Z,11.43
2018-08-03T22:01:07.714Z,10.73
2018-08-03T22:03:45.263Z,11.10
2018-08-03T22:06:22.701Z,11.57
2018-08-03T22:08:59.099Z,10.17
2018-08-03T22:11:34.280Z,10.97
2018-08-03T22:14:10.705Z,10.77
2018-08-03T22:16:47.566Z,10.63
2018-08-03T22:19:23.762Z,10.70
2018-08-03T22:22:02.742Z,11.10
2018-08-03T22:24:36.991Z,11.60
2018-08-03T22:27:13.688Z,10.63
2018-08-03T22:29:42.708Z,9.47
2018-08-03T22:32:11.427Z,9.90
2018-08-03T22:34:40.032Z,10.13
2018-08-03T22:37:08.776Z,11.33
2018-08-03T22:39:37.328Z,9.67
2018-08-03T22:42:06.080Z,9.53
2018-08-03T22:44:35.148Z,10.53
2018-08-03T22:47:03.676Z,11.07
2018-08-03T22:49:32.787Z,11.20
2018-08-03T22:52:01.573Z,12.37
2018-08-03T22:54:30.115Z,11.10
2018-08-03T22:56:58.848Z,11.37
2018-08-03T22:59:27.456Z,11.10
2018-08-03T23:01:56.106Z,11.07
2018-08-03T23:04:24.766Z,11.17
2018-08-03T23:06:53.549Z,11.60
2018-08-03T23:09:22.180Z,10.77
2018-08-03T23:11:50.803Z,11.60
2018-08-03T23:14:19.382Z,12.37
2018-08-03T23:16:48.025Z,14.40
2018-08-03T23:19:16.605Z,14.80
2018-08-03T23:21:45.168Z,15.00
2018-08-03T23:24:13.810Z,13.83
2018-08-03T23:26:42.396Z,12.17
2018-08-03T23:29:10.973Z,12.23
2018-08-03T23:31:39.563Z,13.27
2018-08-03T23:34:08.204Z,13.33
2018-08-03T23:36:37.165Z,13.43
2018-08-03T23:39:07.834Z,13.67
2018-08-03T23:41:36.527Z,12.63
2018-08-03T23:44:05.211Z,14.10
2018-08-03T23:46:33.808Z,13.33
2018-08-03T23:49:02.530Z,13.10
2018-08-03T23:51:31.304Z,13.40
2018-08-03T23:53:59.950Z,13.60
2018-08-03T23:56:28.607Z,14.67
2018-08-03T23:58:57.207Z,14.20
